Time;durP1;ratioP1;P1;durP2;ratioP2;P2;SDS_P1;SDS_P2;PMS_P1;PMS_P2;Temp;Humidity;BMP_temperature;BMP_pressure;BME280_temperature;BME280_humidity;BME280_pressure;Samples;Min_cycle;Max_cycle;Signal;HPM_P1;HPM_P2
2023/09/27 00:02:43;;;;;;;18.38;13.35;;;;;;;10.17;nan;101677.22;10359809;28;20049;-78
2023/09/27 00:07:44;;;;;;;20.98;13.63;;;;;;;10.08;nan;101690.63;10357422;28;20374;-78
2023/09/27 00:12:45;;;;;;;17.30;13.50;;;;;;;10.09;nan;101709.81;10361050;28;20042;-78
2023/09/27 00:17:46;;;;;;;36.83;17.52;;;;;;;10.09;nan;101707.22;10374519;28;20041;-78
2023/09/27 00:22:47;;;;;;;24.07;18.70;;;;;;;10.12;nan;101715.25;10358626;28;20041;-78
2023/09/27 00:27:48;;;;;;;26.38;17.25;;;;;;;10.18;nan;101723.47;10359595;28;20061;-78
2023/09/27 00:32:48;;;;;;;25.17;17.23;;;;;;;10.24;nan;101733.44;10356754;28;20038;-78
2023/09/27 00:37:49;;;;;;;18.60;14.98;;;;;;;10.35;nan;101740.25;10358865;28;20054;-78
2023/09/27 00:42:50;;;;;;;24.83;18.48;;;;;;;10.40;nan;101727.47;10357818;28;20048;-78
2023/09/27 00:47:50;;;;;;;30.75;20.60;;;;;;;10.38;nan;101716.91;10359351;28;20081;-78
2023/09/27 00:52:51;;;;;;;32.65;24.88;;;;;;;10.43;nan;101719.81;10340584;28;20121;-78
2023/09/27 00:57:51;;;;;;;30.83;21.75;;;;;;;10.38;nan;101715.97;10358000;28;20045;-77
2023/09/27 01:02:52;;;;;;;30.70;22.98;;;;;;;10.33;nan;101723.56;10358287;28;20049;-77
2023/09/27 01:07:52;;;;;;;38.45;24.40;;;;;;;10.34;nan;101729.69;10357926;28;20125;-78
2023/09/27 01:12:53;;;;;;;45.00;26.88;;;;;;;10.33;nan;101736.66;10357064;28;20133;-78
2023/09/27 01:17:54;;;;;;;34.35;24.40;;;;;;;10.39;nan;101733.50;10359166;28;20502;-78
2023/09/27 01:23:00;;;;;;;36.53;25.35;;;;;;;10.41;nan;101737.13;10357409;28;20054;-78
2023/09/27 01:28:02;;;;;;;32.85;22.17;;;;;;;10.37;nan;101735.09;10340717;28;20038;-78
2023/09/27 01:33:07;;;;;;;;;;;;;;;10.42;nan;101725.84;10337291;28;20422;-78
2023/09/27 01:38:08;;;;;;;39.45;25.88;;;;;;;10.46;nan;101733.09;10357202;28;19921;-78
2023/09/27 01:43:08;;;;;;;34.47;24.67;;;;;;;10.46;nan;101720.00;10356825;28;20046;-78
2023/09/27 01:48:09;;;;;;;38.28;26.08;;;;;;;10.47;nan;101713.06;10359024;28;20061;-79
2023/09/27 01:53:09;;;;;;;35.42;24.88;;;;;;;10.54;nan;101694.31;10339665;28;20034;-79
2023/09/27 01:58:10;;;;;;;45.78;27.92;;;;;;;10.56;nan;101677.00;10355630;28;20054;-78
2023/09/27 02:03:10;;;;;;;50.90;30.95;;;;;;;10.48;nan;101667.78;10355375;28;20038;-79
2023/09/27 02:08:11;;;;;;;40.50;29.42;;;;;;;10.45;nan;101667.59;10357336;28;20069;-79
2023/09/27 02:13:12;;;;;;;40.95;27.00;;;;;;;10.33;nan;101660.75;10355722;28;20050;-79
2023/09/27 02:18:13;;;;;;;38.33;27.60;;;;;;;10.32;nan;101679.88;10360674;28;20153;-79
2023/09/27 02:23:13;;;;;;;46.53;28.35;;;;;;;10.33;nan;101684.31;10365837;28;20053;-79
2023/09/27 02:28:14;;;;;;;39.78;28.27;;;;;;;10.33;nan;101679.06;10360322;28;20156;-79
2023/09/27 02:33:16;;;;;;;41.70;26.90;;;;;;;10.24;nan;101678.50;10364032;28;20052;-79
2023/09/27 02:38:17;;;;;;;36.47;26.17;;;;;;;10.12;nan;101679.56;10363223;28;20402;-79
2023/09/27 02:43:17;;;;;;;42.17;28.27;;;;;;;10.11;nan;101674.22;10362472;28;20048;-79
2023/09/27 02:48:18;;;;;;;43.30;29.17;;;;;;;9.97;nan;101682.09;10365359;28;20034;-79
2023/09/27 02:53:18;;;;;;;42.78;29.45;;;;;;;9.88;nan;101681.50;10363745;28;20062;-79
2023/09/27 02:58:19;;;;;;;39.65;28.83;;;;;;;9.75;nan;101682.44;10361370;28;20376;-79
2023/09/27 03:03:19;;;;;;;41.33;23.80;;;;;;;9.76;nan;101667.66;10363672;28;20042;-78
2023/09/27 03:08:20;;;;;;;36.90;27.17;;;;;;;9.86;nan;101680.50;10365231;28;20502;-79
2023/09/27 03:13:20;;;;;;;41.67;29.52;;;;;;;9.88;nan;101685.84;10362771;28;20132;-79
2023/09/27 03:18:21;;;;;;;38.88;28.15;;;;;;;9.91;nan;101678.19;10361999;28;20061;-79
2023/09/27 03:23:22;;;;;;;44.88;31.42;;;;;;;9.83;nan;101675.09;10361711;28;20389;-79
2023/09/27 03:28:23;;;;;;;42.30;27.20;;;;;;;9.69;nan;101669.88;10356627;28;20056;-80
2023/09/27 03:33:23;;;;;;;45.08;29.73;;;;;;;9.50;nan;101679.94;10333250;28;20069;-80
2023/09/27 03:38:24;;;;;;;33.90;25.58;;;;;;;9.25;nan;101680.97;10352642;28;20053;-79
2023/09/27 03:43:25;;;;;;;72.40;31.55;;;;;;;9.24;nan;101687.91;10313731;28;20054;-79
2023/09/27 03:48:26;;;;;;;26.67;21.55;;;;;;;9.23;nan;101695.63;10310135;28;20030;-77
2023/09/27 03:53:26;;;;;;;31.52;24.83;;;;;;;9.18;nan;101697.03;10311023;28;20049;-79
2023/09/27 03:58:27;;;;;;;33.03;25.25;;;;;;;9.44;nan;101701.38;10309556;28;20932;-77
2023/09/27 04:03:28;;;;;;;43.00;27.73;;;;;;;9.46;nan;101704.06;10296749;28;20053;-79
2023/09/27 04:08:28;;;;;;;43.83;31.95;;;;;;;9.51;nan;101692.22;10314601;28;20046;-78
2023/09/27 04:13:28;;;;;;;50.47;33.67;;;;;;;9.56;nan;101680.34;10323722;28;20042;-79
2023/09/27 04:18:29;;;;;;;43.92;31.08;;;;;;;9.52;nan;101676.66;10342580;28;20081;-79
2023/09/27 04:23:29;;;;;;;47.72;31.35;;;;;;;9.37;nan;101686.09;10330879;28;20052;-79
2023/09/27 04:28:30;;;;;;;49.45;31.33;;;;;;;9.24;nan;101695.75;10335859;28;20069;-79
2023/09/27 04:33:31;;;;;;;48.30;30.50;;;;;;;9.18;nan;101689.19;10360984;28;20044;-79
2023/09/27 04:38:31;;;;;;;46.78;31.65;;;;;;;9.16;nan;101690.78;10354729;28;20137;-81
2023/09/27 04:43:32;;;;;;;51.30;32.00;;;;;;;9.17;nan;101680.47;10354746;28;20100;-78
2023/09/27 04:48:33;;;;;;;51.25;31.05;;;;;;;9.35;nan;101667.69;10359385;28;20045;-78
2023/09/27 04:53:37;;;;;;;59.22;38.42;;;;;;;9.37;nan;101699.16;10357853;28;20136;-79
2023/09/27 04:58:41;;;;;;;51.55;32.63;;;;;;;9.20;nan;101721.53;10345595;28;20056;-78
2023/09/27 05:03:42;;;;;;;45.38;32.25;;;;;;;9.01;nan;101708.97;10356955;28;20042;-78
2023/09/27 05:08:44;;;;;;;48.58;33.67;;;;;;;8.80;nan;101704.97;10356227;28;20478;-78
2023/09/27 05:13:46;;;;;;;47.50;33.22;;;;;;;8.89;nan;101690.75;10346121;28;20022;-80
2023/09/27 05:18:46;;;;;;;;;;;;;;;9.02;nan;101703.84;10357135;28;20383;-81
2023/09/27 05:23:47;;;;;;;46.95;33.60;;;;;;;9.07;nan;101712.00;10365341;28;19955;-80
2023/09/27 05:28:47;;;;;;;52.75;36.80;;;;;;;9.13;nan;101708.88;10337407;28;20062;-79
2023/09/27 05:33:48;;;;;;;58.20;35.63;;;;;;;9.17;nan;101703.06;10339103;28;20050;-77
2023/09/27 05:38:50;;;;;;;50.25;32.50;;;;;;;9.23;nan;101690.41;10331927;28;20114;-77
2023/09/27 05:43:51;;;;;;;;;;;;;;;9.33;nan;101691.94;10322961;28;20042;-79
2023/09/27 05:48:51;;;;;;;54.17;34.47;;;;;;;9.34;nan;101699.84;10341105;28;19921;-77
2023/09/27 05:53:52;;;;;;;50.17;30.42;;;;;;;9.26;nan;101701.06;10361309;28;20365;-78
2023/09/27 05:58:53;;;;;;;46.17;32.95;;;;;;;9.18;nan;101718.84;10363772;28;20046;-78
2023/09/27 06:03:54;;;;;;;43.13;31.30;;;;;;;9.25;nan;101705.38;10364910;28;20069;-78
2023/09/27 06:08:55;;;;;;;49.05;32.00;;;;;;;9.29;nan;101700.38;10363869;28;20050;-77
2023/09/27 06:13:55;;;;;;;46.63;32.50;;;;;;;9.29;nan;101702.97;10364968;28;20391;-77
2023/09/27 06:18:56;;;;;;;50.03;31.50;;;;;;;9.30;nan;101718.72;10365613;28;20052;-78
2023/09/27 06:23:56;;;;;;;46.53;30.00;;;;;;;9.23;nan;101711.28;10366217;28;20073;-78
2023/09/27 06:28:58;;;;;;;40.58;27.42;;;;;;;9.24;nan;101695.75;10363869;28;20571;-77
2023/09/27 06:33:58;;;;;;;42.10;26.85;;;;;;;9.39;nan;101687.09;10364700;28;20033;-77
2023/09/27 06:38:59;;;;;;;42.70;29.08;;;;;;;9.54;nan;101702.88;10364356;28;20470;-77
2023/09/27 06:44:00;;;;;;;44.63;29.60;;;;;;;9.74;nan;101711.09;10364310;28;20462;-77
2023/09/27 06:49:01;;;;;;;44.13;32.20;;;;;;;10.06;nan;101707.94;10363843;28;20065;-77
2023/09/27 06:54:02;;;;;;;36.30;27.90;;;;;;;10.44;nan;101690.22;10363143;28;20038;-77
2023/09/27 06:59:03;;;;;;;30.58;22.95;;;;;;;10.66;nan;101697.69;10363977;28;20505;-77
2023/09/27 07:04:03;;;;;;;45.58;30.42;;;;;;;11.16;nan;101684.88;10361027;28;20117;-77
2023/09/27 07:09:04;;;;;;;36.97;23.90;;;;;;;12.54;nan;101676.72;10362631;28;20486;-76
2023/09/27 07:14:06;;;;;;;29.95;22.67;;;;;;;13.57;nan;101660.84;10362253;28;20065;-76
2023/09/27 07:19:06;;;;;;;27.30;16.08;;;;;;;14.18;nan;101662.81;10360958;28;20042;-77
2023/09/27 07:24:09;;;;;;;21.58;12.07;;;;;;;14.70;nan;101673.91;10362704;28;20048;-77
2023/09/27 07:29:11;;;;;;;11.82;7.70;;;;;;;14.10;nan;101656.31;10361918;28;20501;-79
2023/09/27 07:34:12;;;;;;;21.65;10.23;;;;;;;14.39;nan;101639.19;10361734;28;20120;-78
2023/09/27 07:39:13;;;;;;;22.85;10.82;;;;;;;14.87;nan;101608.75;10361906;28;20042;-78
2023/09/27 07:44:14;;;;;;;12.30;8.38;;;;;;;14.98;nan;101575.81;10361780;28;20042;-78
2023/09/27 07:49:15;;;;;;;13.73;10.73;;;;;;;14.83;nan;101585.72;10362266;28;20466;-78
2023/09/27 07:54:16;;;;;;;15.07;11.05;;;;;;;14.65;nan;101563.00;10359860;28;20069;-78
2023/09/27 07:59:17;;;;;;;12.68;10.63;;;;;;;14.57;nan;101550.38;10360718;28;20504;-77
2023/09/27 08:04:19;;;;;;;15.82;11.30;;;;;;;14.76;nan;101578.41;10360900;28;20493;-78
2023/09/27 08:09:22;;;;;;;15.50;11.23;;;;;;;14.88;nan;101580.66;10360130;28;20037;-79
2023/09/27 08:14:22;;;;;;;18.55;14.30;;;;;;;15.26;nan;101582.22;10360059;28;20038;-79
2023/09/27 08:19:24;;;;;;;21.98;15.07;;;;;;;15.94;nan;101590.97;10358737;28;20061;-78
2023/09/27 08:24:25;;;;;;;16.33;12.63;;;;;;;16.39;nan;101568.81;10359706;28;20379;-78
2023/09/27 08:29:25;;;;;;;14.00;9.93;;;;;;;16.80;nan;101563.13;10375148;28;20065;-79
2023/09/27 08:34:26;;;;;;;19.60;11.40;;;;;;;17.21;nan;101570.66;10358266;28;20510;-78
2023/09/27 08:39:27;;;;;;;19.33;10.35;;;;;;;17.76;nan;101579.34;10359199;28;20046;-78
2023/09/27 08:44:27;;;;;;;13.00;10.73;;;;;;;18.06;nan;101589.06;10358402;28;20064;-78
2023/09/27 08:49:28;;;;;;;17.48;10.57;;;;;;;17.88;nan;101594.72;10357926;28;20062;-78
2023/09/27 08:54:28;;;;;;;13.18;9.18;;;;;;;17.75;nan;101586.41;10358592;28;20128;-78
2023/09/27 08:59:29;;;;;;;13.37;9.07;;;;;;;18.08;nan;101600.59;10359045;28;20045;-78
2023/09/27 09:04:31;;;;;;;11.75;8.68;;;;;;;18.34;nan;101600.44;10341146;28;20129;-78
2023/09/27 09:09:33;;;;;;;16.13;12.77;;;;;;;18.97;nan;101593.25;10357847;28;20088;-78
2023/09/27 09:14:42;;;;;;;15.15;8.13;;;;;;;19.41;nan;101618.16;10359319;28;20046;-77
2023/09/27 09:19:42;;;;;;;12.93;8.50;;;;;;;19.89;nan;101627.19;10357778;28;20497;-77
2023/09/27 09:24:43;;;;;;;15.27;9.60;;;;;;;20.02;nan;101602.69;10356426;28;20145;-77
2023/09/27 09:29:47;;;;;;;14.40;8.47;;;;;;;20.29;nan;101592.56;10358355;28;20046;-77
2023/09/27 09:34:49;;;;;;;11.07;7.82;;;;;;;21.02;nan;101604.53;10340737;28;20038;-77
2023/09/27 09:39:53;;;;;;;8.48;6.05;;;;;;;21.23;nan;101610.19;10358724;28;20066;-77
2023/09/27 09:45:07;;;;;;;10.60;6.63;;;;;;;21.68;nan;101618.81;10355928;28;20048;-77
2023/09/27 09:50:08;;;;;;;9.80;7.43;;;;;;;24.60;nan;101674.56;10344978;28;20038;-78
2023/09/27 09:55:10;;;;;;;11.55;6.45;;;;;;;26.44;nan;101717.25;10356003;28;20492;-78
2023/09/27 10:00:16;;;;;;;9.20;7.47;;;;;;;26.34;nan;101717.31;10355669;28;20041;-78
2023/09/27 10:05:21;;;;;;;11.68;6.22;;;;;;;26.46;nan;101705.63;10353328;28;20050;-78
2023/09/27 10:10:22;;;;;;;12.18;7.53;;;;;;;26.46;nan;101696.69;10341749;28;20457;-78
2023/09/27 10:15:22;;;;;;;10.07;6.28;;;;;;;27.22;nan;101696.19;10338554;28;20138;-81
2023/09/27 10:20:24;;;;;;;6.77;4.43;;;;;;;25.16;nan;101685.38;10339114;28;20046;-81
2023/09/27 10:25:26;;;;;;;10.82;4.35;;;;;;;23.38;nan;101672.19;10357686;28;20042;-80
2023/09/27 10:30:26;;;;;;;6.88;3.97;;;;;;;22.69;nan;101656.44;10357500;28;20046;-81
2023/09/27 10:35:27;;;;;;;7.53;5.03;;;;;;;23.92;nan;101668.94;10356012;28;20487;-80
2023/09/27 10:40:28;;;;;;;6.63;4.20;;;;;;;23.90;nan;101662.72;10375535;28;20046;-80
2023/09/27 10:45:28;;;;;;;6.10;3.83;;;;;;;23.47;nan;101652.69;10347266;28;20045;-81
2023/09/27 10:50:29;;;;;;;7.03;4.50;;;;;;;23.96;nan;101633.34;10362897;28;20513;-80
2023/09/27 10:55:37;;;;;;;7.10;4.40;;;;;;;26.33;nan;101645.75;10379082;28;20092;-81
2023/09/27 11:00:56;;;;;;;8.75;4.57;;;;;;;26.86;nan;101649.94;10362649;28;20073;-80
2023/09/27 11:06:16;;;;;;;7.45;4.20;;;;;;;27.55;nan;101640.34;10346568;28;20049;-82
2023/09/27 11:11:17;;;;;;;7.15;4.05;;;;;;;26.46;nan;101629.59;10361732;28;20096;-80
2023/09/27 11:16:18;;;;;;;5.10;3.80;;;;;;;29.21;nan;101623.63;10379159;28;20176;-80
2023/09/27 11:21:23;;;;;;;;;;;;;;;30.09;nan;101621.03;10361903;28;20046;-80
2023/09/27 11:26:26;;;;;;;5.38;3.13;;;;;;;31.97;nan;101605.38;10377281;28;19928;-81
2023/09/27 11:31:28;;;;;;;11.70;4.57;;;;;;;32.54;nan;101609.00;10360605;28;20056;-80
2023/09/27 11:36:28;;;;;;;8.43;2.75;;;;;;;30.70;nan;101607.91;10361034;28;20034;-78
2023/09/27 11:41:29;;;;;;;8.13;4.63;;;;;;;29.04;nan;101605.06;10356707;28;20443;-78
2023/09/27 11:46:31;;;;;;;6.30;3.20;;;;;;;27.87;nan;101589.75;10349258;28;20041;-77
2023/09/27 11:51:31;;;;;;;11.60;3.92;;;;;;;26.43;nan;101582.22;10353523;28;20066;-76
2023/09/27 11:56:34;;;;;;;6.23;4.23;;;;;;;25.74;nan;101578.09;10340330;28;20153;-76
2023/09/27 12:01:35;;;;;;;13.32;3.75;;;;;;;25.42;nan;101565.69;10342885;28;20509;-75
2023/09/27 12:06:35;;;;;;;7.30;3.60;;;;;;;27.21;nan;101562.75;10351422;28;20046;-76
2023/09/27 12:11:36;;;;;;;6.10;3.53;;;;;;;26.72;nan;101539.91;10353657;28;20445;-75
2023/09/27 12:16:37;;;;;;;10.90;3.92;;;;;;;26.20;nan;101526.94;10360192;28;20038;-76
2023/09/27 12:21:37;;;;;;;8.00;3.73;;;;;;;24.95;nan;101522.94;10328705;28;20118;-77
2023/09/27 12:26:38;;;;;;;6.27;3.30;;;;;;;24.03;nan;101487.25;10344778;28;20492;-78
2023/09/27 12:31:39;;;;;;;8.20;2.73;;;;;;;23.80;nan;101471.13;10362648;28;20482;-77
2023/09/27 12:36:39;;;;;;;6.73;3.17;;;;;;;24.18;nan;101468.56;10348683;28;20046;-78
2023/09/27 12:41:40;;;;;;;6.27;3.83;;;;;;;24.27;nan;101450.75;10350956;28;20046;-77
2023/09/27 12:46:40;;;;;;;7.90;3.53;;;;;;;25.56;nan;101455.78;10356579;28;20058;-79
2023/09/27 12:51:41;;;;;;;8.90;3.57;;;;;;;27.34;nan;101473.03;10356661;28;20064;-77
2023/09/27 12:56:42;;;;;;;4.90;2.53;;;;;;;27.64;nan;101478.03;10359213;28;20478;-77
2023/09/27 13:01:43;;;;;;;6.18;3.22;;;;;;;29.48;nan;101473.09;10357463;28;20052;-78
2023/09/27 13:06:46;;;;;;;4.13;2.67;;;;;;;29.85;nan;101475.81;10357422;28;20030;-78
2023/09/27 13:11:46;;;;;;;5.68;3.10;;;;;;;28.22;nan;101470.91;10366622;28;20091;-79
2023/09/27 13:16:47;;;;;;;8.93;2.77;;;;;;;28.68;nan;101453.03;10358334;28;20041;-78
2023/09/27 13:21:47;;;;;;;9.17;2.73;;;;;;;30.06;nan;101454.66;10359688;28;20413;-77
2023/09/27 13:26:48;;;;;;;8.87;3.43;;;;;;;30.86;nan;101446.28;10358029;28;20077;-78
2023/09/27 13:31:50;;;;;;;16.20;3.42;;;;;;;31.61;nan;101447.69;10356794;28;20504;-77
2023/09/27 13:36:50;;;;;;;4.65;2.95;;;;;;;30.53;nan;101446.28;10356043;28;20117;-77
2023/09/27 13:41:51;;;;;;;9.60;4.17;;;;;;;31.18;nan;101433.69;10358129;28;20432;-78
2023/09/27 13:46:51;;;;;;;5.73;2.87;;;;;;;31.15;nan;101430.13;10361236;28;20050;-77
2023/09/27 13:51:52;;;;;;;5.40;3.75;;;;;;;31.28;nan;101426.16;10358331;28;20120;-78
2023/09/27 13:56:55;;;;;;;6.23;2.63;;;;;;;30.90;nan;101433.56;10351698;28;20626;-78
2023/09/27 14:01:59;;;;;;;5.40;3.88;;;;;;;30.42;nan;101426.78;10350947;28;20347;-80
2023/09/27 14:07:00;;;;;;;5.83;3.13;;;;;;;31.08;nan;101431.25;10334577;28;20169;-79
2023/09/27 14:12:01;;;;;;;12.55;4.30;;;;;;;30.96;nan;101422.56;10367953;28;20038;-78
2023/09/27 14:17:02;;;;;;;6.97;2.90;;;;;;;31.00;nan;101418.84;10362847;28;20046;-78
2023/09/27 14:22:02;;;;;;;;;;;;;;;29.99;nan;101415.25;10361661;28;20111;-79
2023/09/27 14:27:03;;;;;;;5.80;2.63;;;;;;;26.72;nan;101394.94;10364595;28;19927;-79
2023/09/27 14:32:08;;;;;;;6.72;3.55;;;;;;;25.84;nan;101389.50;10361118;28;20116;-79
2023/09/27 14:37:09;;;;;;;577.67;112.45;;;;;;;24.93;nan;101377.50;10377354;28;20053;-79
2023/09/27 14:42:09;;;;;;;4.20;2.33;;;;;;;23.86;nan;101369.59;10354264;28;20046;-79
2023/09/27 14:47:10;;;;;;;2.50;1.67;;;;;;;23.42;nan;101332.13;10362471;28;20038;-79
2023/09/27 14:52:10;;;;;;;1999.90;999.90;;;;;;;22.95;nan;101307.09;10360959;28;20125;-79
2023/09/27 14:57:11;;;;;;;18.40;6.90;;;;;;;23.16;nan;101297.34;10363532;28;20066;-79
2023/09/27 15:02:11;;;;;;;7.07;3.80;;;;;;;23.42;nan;101292.06;10361495;28;20478;-79
2023/09/27 15:07:12;;;;;;;6.50;3.33;;;;;;;24.19;nan;101290.28;10361950;28;20046;-79
2023/09/27 15:12:12;;;;;;;7.10;3.50;;;;;;;25.05;nan;101317.63;10360364;28;20689;-79
2023/09/27 15:17:16;;;;;;;7.80;3.23;;;;;;;23.76;nan;101318.81;10362638;28;20048;-78
2023/09/27 15:22:16;;;;;;;5.85;2.80;;;;;;;22.27;nan;101293.41;10344296;28;20581;-79
2023/09/27 15:27:17;;;;;;;6.33;3.20;;;;;;;21.38;nan;101259.84;10357364;28;20144;-79
2023/09/27 15:32:17;;;;;;;598.00;270.70;;;;;;;20.95;nan;101257.66;10356382;28;20462;-77
2023/09/27 15:37:18;;;;;;;1999.90;356.03;;;;;;;20.45;nan;101249.03;10362842;28;20105;-78
2023/09/27 15:42:18;;;;;;;1999.90;319.53;;;;;;;20.19;nan;101244.28;10359198;28;20044;-79
2023/09/27 15:47:19;;;;;;;6.37;3.43;;;;;;;19.92;nan;101229.72;10358108;28;20045;-78
2023/09/27 15:52:20;;;;;;;6.83;4.83;;;;;;;19.92;nan;101240.34;10360087;28;20092;-78
2023/09/27 15:57:20;;;;;;;8.23;4.17;;;;;;;19.98;nan;101239.56;10356268;28;20033;-79
2023/09/27 16:02:21;;;;;;;6.93;3.60;;;;;;;19.90;nan;101233.25;10363087;28;20188;-78
2023/09/27 16:07:21;;;;;;;7.03;3.87;;;;;;;19.73;nan;101243.56;10358795;28;20045;-77
2023/09/27 16:12:22;;;;;;;6.40;3.70;;;;;;;19.43;nan;101251.06;10357628;28;20069;-77
2023/09/27 16:17:22;;;;;;;4.70;3.70;;;;;;;19.13;nan;101240.78;10361095;28;20046;-78
2023/09/27 16:22:23;;;;;;;7.67;4.50;;;;;;;18.88;nan;101240.28;10356837;28;20133;-78
2023/09/27 16:27:23;;;;;;;21.88;4.72;;;;;;;18.64;nan;101236.28;10385552;28;20069;-78
2023/09/27 16:32:24;;;;;;;8.33;5.00;;;;;;;18.38;nan;101233.97;10374513;28;20077;-79
2023/09/27 16:37:24;;;;;;;8.60;5.50;;;;;;;18.23;nan;101236.31;10339605;28;20128;-80
2023/09/27 16:42:25;;;;;;;9.33;5.20;;;;;;;18.16;nan;101254.72;10371762;28;20184;-79
2023/09/27 16:47:26;;;;;;;14.27;5.25;;;;;;;18.02;nan;101262.34;10359157;28;20482;-78
2023/09/27 16:52:27;;;;;;;10.27;6.18;;;;;;;17.88;nan;101254.03;10365159;28;20450;-79
2023/09/27 16:57:27;;;;;;;5.88;3.88;;;;;;;17.75;nan;101242.28;10359372;28;20050;-79
2023/09/27 17:02:28;;;;;;;9.10;5.43;;;;;;;17.64;nan;101227.88;10371368;28;20399;-79
2023/09/27 17:07:32;;;;;;;9.32;6.00;;;;;;;17.43;nan;101226.50;10357754;28;20426;-79
2023/09/27 17:12:33;;;;;;;6.55;2.90;;;;;;;17.23;nan;101231.25;10371237;28;20069;-79
2023/09/27 17:17:34;;;;;;;760.08;404.92;;;;;;;17.03;nan;101215.75;10357497;28;20037;-79
2023/09/27 17:22:34;;;;;;;973.72;265.70;;;;;;;16.91;nan;101206.59;10354459;28;20124;-79
2023/09/27 17:27:35;;;;;;;639.75;124.45;;;;;;;16.73;nan;101197.31;10329677;28;20483;-79
2023/09/27 17:32:38;;;;;;;14.45;7.20;;;;;;;16.73;nan;101197.31;10328393;28;20555;-78
2023/09/27 17:37:39;;;;;;;8.27;6.30;;;;;;;16.63;nan;101189.97;10356603;28;20521;-78
2023/09/27 17:42:40;;;;;;;10.35;5.40;;;;;;;16.58;nan;101197.75;10369253;28;20128;-78
2023/09/27 17:47:41;;;;;;;9.43;5.97;;;;;;;16.47;nan;101194.81;10359520;28;20040;-78
2023/09/27 17:52:41;;;;;;;13.77;6.15;;;;;;;16.43;nan;101190.31;10346398;28;20069;-77
2023/09/27 17:57:42;;;;;;;14.30;8.02;;;;;;;16.32;nan;101195.25;10359329;28;20046;-78
2023/09/27 18:02:42;;;;;;;10.48;6.90;;;;;;;16.07;nan;101173.41;10364592;28;20092;-78
2023/09/27 18:07:43;;;;;;;10.15;8.25;;;;;;;15.94;nan;101184.44;10380242;28;20045;-78
2023/09/27 18:12:43;;;;;;;11.63;7.72;;;;;;;15.79;nan;101184.84;10362307;28;20034;-78
2023/09/27 18:17:44;;;;;;;14.02;7.30;;;;;;;15.76;nan;101193.56;10360240;28;20052;-78
2023/09/27 18:22:44;;;;;;;15.23;7.93;;;;;;;15.68;nan;101182.78;10363433;28;20042;-78
2023/09/27 18:27:45;;;;;;;12.15;9.68;;;;;;;15.64;nan;101185.25;10350127;28;20405;-78
2023/09/27 18:32:45;;;;;;;15.93;10.15;;;;;;;15.65;nan;101174.75;10379049;28;20121;-79
2023/09/27 18:37:46;;;;;;;19.48;9.70;;;;;;;15.69;nan;101176.66;10359037;28;20533;-78
2023/09/27 18:42:46;;;;;;;28.20;9.82;;;;;;;15.68;nan;101164.31;10356155;28;20038;-78
2023/09/27 18:47:47;;;;;;;19.25;10.38;;;;;;;15.68;nan;101174.84;10364823;28;20042;-78
2023/09/27 18:52:49;;;;;;;10.52;8.82;;;;;;;15.66;nan;101168.63;10358713;28;20057;-78
2023/09/27 18:57:49;;;;;;;11.30;9.00;;;;;;;15.62;nan;101168.47;10362138;28;20073;-79
2023/09/27 19:02:50;;;;;;;12.98;8.13;;;;;;;15.52;nan;101173.44;10358932;28;20038;-79
2023/09/27 19:07:50;;;;;;;14.70;9.38;;;;;;;15.48;nan;101171.56;10363475;28;20073;-79
2023/09/27 19:12:51;;;;;;;17.13;10.32;;;;;;;15.42;nan;101187.19;10356312;28;20046;-76
2023/09/27 19:17:56;;;;;;;11.45;9.38;;;;;;;15.36;nan;101173.81;10363116;28;20048;-77
2023/09/27 19:22:57;;;;;;;11.65;10.23;;;;;;;15.27;nan;101172.66;10358571;28;20067;-76
2023/09/27 19:28:00;;;;;;;16.33;11.15;;;;;;;15.31;nan;101189.50;10334279;28;20053;-76
2023/09/27 19:33:01;;;;;;;;;;;;;;;15.33;nan;101171.97;10373162;28;20045;-77
2023/09/27 19:38:01;;;;;;;14.63;9.88;;;;;;;15.21;nan;101164.53;10382207;28;19921;-76
2023/09/27 19:43:02;;;;;;;13.52;11.10;;;;;;;15.17;nan;101170.56;10358483;28;20089;-76
2023/09/27 19:48:04;;;;;;;16.80;11.45;;;;;;;15.21;nan;101177.72;10345148;28;20034;-76
2023/09/27 19:53:04;;;;;;;15.30;9.73;;;;;;;15.19;nan;101182.03;10320216;28;20049;-76
2023/09/27 19:58:05;;;;;;;12.75;11.32;;;;;;;15.13;nan;101176.56;10350188;28;20050;-77
2023/09/27 20:03:06;;;;;;;16.55;11.38;;;;;;;15.11;nan;101155.44;10354241;28;20038;-77
2023/09/27 20:08:06;;;;;;;17.05;13.25;;;;;;;15.08;nan;101150.06;10341140;28;20042;-77
2023/09/27 20:13:07;;;;;;;18.60;10.43;;;;;;;15.08;nan;101154.44;10328358;28;20103;-77
2023/09/27 20:18:07;;;;;;;20.20;12.20;;;;;;;15.03;nan;101145.47;10344047;28;20046;-76
2023/09/27 20:23:08;;;;;;;15.52;11.15;;;;;;;15.06;nan;101137.66;10360949;28;20042;-77
2023/09/27 20:28:09;;;;;;;12.95;10.43;;;;;;;15.03;nan;101135.84;10355377;28;20046;-77
2023/09/27 20:33:09;;;;;;;14.45;11.88;;;;;;;15.00;nan;101135.72;10346342;28;20038;-77
2023/09/27 20:38:10;;;;;;;19.08;12.50;;;;;;;14.98;nan;101118.97;10326467;28;20060;-76
2023/09/27 20:43:10;;;;;;;18.48;12.20;;;;;;;14.92;nan;101110.84;10358627;28;20367;-77
2023/09/27 20:48:11;;;;;;;17.95;11.30;;;;;;;14.89;nan;101105.50;10357718;28;20044;-76
2023/09/27 20:53:12;;;;;;;18.40;12.18;;;;;;;14.92;nan;101113.50;10340849;28;20037;-77
2023/09/27 20:58:12;;;;;;;18.20;12.77;;;;;;;14.88;nan;101117.75;10360783;28;20041;-76
2023/09/27 21:03:13;;;;;;;30.80;12.73;;;;;;;14.83;nan;101111.44;10355838;28;20059;-77
2023/09/27 21:08:13;;;;;;;19.13;13.13;;;;;;;14.81;nan;101119.28;10353499;28;20487;-77
2023/09/27 21:13:14;;;;;;;14.95;11.73;;;;;;;14.80;nan;101112.22;10357226;28;20042;-77
2023/09/27 21:18:14;;;;;;;19.15;11.90;;;;;;;14.92;nan;101103.84;10356491;28;20037;-77
2023/09/27 21:23:15;;;;;;;12.20;10.85;;;;;;;14.89;nan;101095.81;10355066;28;20042;-77
2023/09/27 21:28:16;;;;;;;18.23;11.95;;;;;;;14.88;nan;101077.34;10356519;28;20049;-77
2023/09/27 21:33:17;;;;;;;22.40;12.60;;;;;;;14.87;nan;101065.91;10358098;28;20038;-76
2023/09/27 21:38:18;;;;;;;17.10;10.50;;;;;;;15.00;nan;101045.22;10355760;28;20048;-77
2023/09/27 21:43:18;;;;;;;12.45;10.10;;;;;;;14.97;nan;101044.28;10353686;28;20273;-77
2023/09/27 21:48:21;;;;;;;14.35;9.00;;;;;;;14.97;nan;101046.91;10358491;28;20458;-77
2023/09/27 21:53:21;;;;;;;16.48;9.85;;;;;;;14.95;nan;101047.72;10355622;28;20517;-77
2023/09/27 21:58:22;;;;;;;12.20;8.20;;;;;;;15.03;nan;101045.31;10352574;28;20048;-77
2023/09/27 22:03:23;;;;;;;19.10;9.75;;;;;;;15.06;nan;101035.78;10357645;28;20038;-77
2023/09/27 22:08:23;;;;;;;9.45;6.75;;;;;;;15.15;nan;101029.88;10372084;28;20042;-77
2023/09/27 22:13:28;;;;;;;17.83;7.22;;;;;;;15.27;nan;101024.13;10351373;28;20096;-77
2023/09/27 22:18:33;;;;;;;13.13;5.22;;;;;;;15.33;nan;101012.84;10352437;28;20053;-77
2023/09/27 22:23:39;;;;;;;17.45;7.32;;;;;;;15.38;nan;100995.41;10339459;28;20201;-77
2023/09/27 22:28:40;;;;;;;11.00;4.95;;;;;;;15.54;nan;100968.66;10352718;28;20437;-78
2023/09/27 22:33:41;;;;;;;10.07;5.53;;;;;;;15.64;nan;100935.53;10354165;28;20057;-77
2023/09/27 22:38:42;;;;;;;13.05;6.03;;;;;;;15.60;nan;100932.75;10394536;28;20139;-78
2023/09/27 22:43:43;;;;;;;5.90;4.68;;;;;;;15.54;nan;100934.34;10364230;28;20111;-77
2023/09/27 22:48:44;;;;;;;6.57;4.20;;;;;;;15.54;nan;100955.47;10359945;28;20069;-77
2023/09/27 22:53:45;;;;;;;10.48;6.22;;;;;;;15.45;nan;100976.28;10361464;28;20041;-77
2023/09/27 22:58:45;;;;;;;10.35;5.40;;;;;;;15.28;nan;101020.63;10378058;28;20037;-77
2023/09/27 23:03:53;;;;;;;7.97;5.30;;;;;;;15.21;nan;101051.16;10363642;28;20038;-77
2023/09/27 23:08:59;;;;;;;8.85;4.35;;;;;;;15.16;nan;101036.06;10362326;28;20058;-77
2023/09/27 23:14:04;;;;;;;13.05;5.60;;;;;;;15.13;nan;101052.66;10360645;28;20406;-77
2023/09/27 23:19:05;;;;;;;15.20;5.95;;;;;;;15.08;nan;101049.00;10362523;28;20046;-77
2023/09/27 23:34:34;;;;;;;10.30;6.03;;;;;;;14.76;nan;101073.44;10356750;28;20204;-77